createdAt,value
2017-07-23T00:00:28.414Z,99.99
2017-07-23T00:01:29.626Z,99.99
2017-07-23T00:02:30.856Z,99.99
2017-07-23T00:03:32.102Z,99.99
2017-07-23T00:04:33.379Z,99.99
2017-07-23T00:05:34.600Z,99.99
2017-07-23T00:06:35.839Z,99.99
2017-07-23T00:07:37.079Z,99.99
2017-07-23T00:08:38.345Z,99.99
2017-07-23T00:09:39.584Z,99.99
2017-07-23T00:10:40.829Z,99.99
2017-07-23T00:11:42.089Z,99.99
2017-07-23T00:12:43.315Z,99.99
2017-07-23T00:13:44.550Z,99.99
2017-07-23T00:14:45.789Z,99.99
2017-07-23T00:15:47.020Z,99.99
2017-07-23T00:16:48.366Z,99.99
2017-07-23T00:17:49.602Z,99.99
2017-07-23T00:18:50.839Z,99.99
2017-07-23T00:19:52.099Z,99.99
2017-07-23T00:20:53.325Z,99.99
2017-07-23T00:21:54.662Z,99.99
2017-07-23T00:22:56.014Z,99.99
2017-07-23T00:23:57.255Z,99.99
2017-07-23T00:24:58.500Z,99.99
2017-07-23T00:25:59.750Z,99.99
2017-07-23T00:27:00.987Z,99.99
2017-07-23T00:28:02.290Z,99.99
2017-07-23T00:29:03.604Z,99.99
2017-07-23T00:30:04.826Z,99.99
2017-07-23T00:31:06.086Z,99.99
2017-07-23T00:32:07.336Z,99.99
2017-07-23T00:33:08.574Z,99.99
2017-07-23T00:34:09.809Z,99.99
2017-07-23T00:35:11.064Z,99.99
2017-07-23T00:36:12.307Z,99.99
2017-07-23T00:37:13.548Z,99.99
2017-07-23T00:38:14.785Z,99.99
2017-07-23T00:39:16.026Z,99.99
2017-07-23T00:40:17.263Z,99.99
2017-07-23T00:41:18.516Z,99.99
2017-07-23T00:42:19.890Z,99.99
2017-07-23T00:43:21.112Z,99.99
2017-07-23T00:44:22.380Z,99.99
2017-07-23T00:45:23.624Z,99.99
2017-07-23T00:46:24.857Z,99.99
2017-07-23T00:47:26.127Z,99.99
2017-07-23T00:48:27.348Z,99.99
2017-07-23T00:49:28.601Z,99.99
2017-07-23T00:50:29.938Z,99.99
2017-07-23T00:51:31.166Z,99.99
2017-07-23T00:52:32.434Z,99.99
2017-07-23T00:53:33.655Z,99.99
2017-07-23T00:54:34.893Z,99.99
2017-07-23T00:55:36.190Z,99.99
2017-07-23T00:56:37.500Z,99.99
2017-07-23T00:57:38.667Z,99.99
2017-07-23T00:58:39.897Z,99.99
2017-07-23T00:59:41.146Z,99.99
2017-07-23T01:00:42.384Z,99.99
2017-07-23T01:01:43.643Z,99.99
2017-07-23T01:02:44.886Z,99.99
2017-07-23T01:03:46.150Z,99.99
2017-07-23T01:04:47.381Z,99.99
2017-07-23T01:05:48.619Z,99.99
2017-07-23T01:06:49.856Z,99.99
2017-07-23T01:07:51.099Z,99.99
2017-07-23T01:08:52.346Z,99.99
2017-07-23T01:09:53.653Z,99.99
2017-07-23T01:10:54.867Z,99.99
2017-07-23T01:11:56.153Z,99.99
2017-07-23T01:12:57.366Z,99.99
2017-07-23T01:13:58.655Z,99.99
2017-07-23T01:14:59.904Z,99.99
2017-07-23T01:16:01.140Z,99.99
2017-07-23T01:17:02.376Z,99.99
2017-07-23T01:18:03.605Z,99.99
2017-07-23T01:19:04.846Z,99.99
2017-07-23T01:20:06.089Z,99.99
2017-07-23T01:21:07.330Z,99.99
2017-07-23T01:22:08.593Z,99.99
2017-07-23T01:23:10.040Z,99.99
2017-07-23T01:24:11.279Z,99.99
2017-07-23T01:25:12.512Z,99.99
2017-07-23T01:26:13.750Z,99.99
2017-07-23T01:27:15.000Z,99.99
2017-07-23T01:28:16.333Z,99.99
2017-07-23T01:29:17.670Z,99.99
2017-07-23T01:30:18.904Z,99.99
2017-07-23T01:31:20.138Z,99.99
2017-07-23T01:32:21.376Z,99.99
2017-07-23T01:33:22.626Z,99.99
2017-07-23T01:34:23.918Z,99.99
2017-07-23T01:35:25.191Z,99.99
2017-07-23T01:36:26.401Z,99.99
2017-07-23T01:37:27.640Z,99.99
2017-07-23T01:38:28.909Z,99.99
2017-07-23T01:39:30.116Z,99.99
2017-07-23T01:40:31.366Z,99.99
2017-07-23T01:41:32.675Z,99.99
2017-07-23T01:42:33.931Z,99.99
2017-07-23T01:43:35.187Z,99.99
2017-07-23T01:44:36.471Z,99.99
2017-07-23T01:45:37.717Z,99.99
2017-07-23T01:46:38.970Z,99.99
2017-07-23T01:47:40.207Z,99.99
2017-07-23T01:48:41.447Z,99.99
2017-07-23T01:49:42.683Z,99.99
2017-07-23T01:50:43.916Z,99.99
2017-07-23T01:51:45.149Z,99.99
2017-07-23T01:52:46.390Z,99.99
2017-07-23T01:53:47.645Z,99.99
2017-07-23T01:54:48.872Z,99.99
2017-07-23T01:55:50.185Z,99.99
2017-07-23T01:56:51.418Z,99.99
2017-07-23T01:57:52.659Z,99.99
2017-07-23T01:58:54.024Z,99.99
2017-07-23T01:59:55.271Z,99.99
2017-07-23T02:00:56.540Z,99.99
2017-07-23T02:01:57.785Z,99.99
2017-07-23T02:02:59.024Z,99.99
2017-07-23T02:04:00.253Z,99.99
2017-07-23T02:05:01.502Z,99.99
2017-07-23T02:06:02.821Z,99.99
2017-07-23T02:07:04.119Z,99.99
2017-07-23T02:08:05.353Z,99.99
2017-07-23T02:09:06.589Z,99.99
2017-07-23T02:10:07.827Z,99.99
2017-07-23T02:11:09.071Z,99.99
2017-07-23T02:12:10.334Z,99.99
2017-07-23T02:13:11.655Z,99.99
2017-07-23T02:14:12.825Z,99.99
2017-07-23T02:15:14.126Z,99.99
2017-07-23T02:16:15.372Z,99.99
2017-07-23T02:17:16.623Z,99.99
2017-07-23T02:18:17.870Z,99.99
2017-07-23T02:19:19.103Z,99.99
2017-07-23T02:20:20.349Z,99.99
2017-07-23T02:21:21.627Z,99.99
2017-07-23T02:22:22.856Z,99.99
2017-07-23T02:23:24.097Z,99.99
2017-07-23T02:24:25.334Z,99.99
2017-07-23T02:25:26.563Z,99.99
2017-07-23T02:26:27.808Z,99.99
2017-07-23T02:27:29.041Z,99.99
2017-07-23T02:28:30.298Z,99.99
2017-07-23T02:29:31.536Z,99.99
2017-07-23T02:30:32.774Z,99.99
2017-07-23T02:31:34.064Z,99.99
2017-07-23T02:32:35.314Z,99.99
2017-07-23T02:33:36.765Z,99.99
2017-07-23T02:34:38.006Z,99.99
2017-07-23T02:35:39.248Z,99.99
2017-07-23T02:36:40.514Z,99.99
2017-07-23T02:37:41.768Z,99.99
2017-07-23T02:38:43.002Z,99.99
2017-07-23T02:39:44.249Z,99.99
2017-07-23T02:40:45.501Z,99.99
2017-07-23T02:41:46.737Z,99.99
2017-07-23T02:42:47.976Z,99.99
2017-07-23T02:43:49.231Z,99.99
2017-07-23T02:44:50.544Z,99.99
2017-07-23T02:45:51.785Z,99.99
2017-07-23T02:46:53.022Z,99.99
2017-07-23T02:47:54.280Z,99.99
2017-07-23T02:48:55.520Z,99.99
2017-07-23T02:49:56.769Z,99.99
2017-07-23T02:50:58.060Z,99.99
2017-07-23T02:51:59.298Z,99.99
2017-07-23T02:53:00.554Z,99.99
2017-07-23T02:54:01.778Z,99.99
2017-07-23T02:55:03.012Z,99.99
2017-07-23T02:56:04.279Z,99.99
2017-07-23T02:57:05.502Z,99.99
2017-07-23T02:58:06.784Z,99.99
2017-07-23T02:59:08.092Z,99.99
2017-07-23T03:00:09.381Z,99.99
2017-07-23T03:01:10.630Z,99.99
2017-07-23T03:02:11.885Z,99.99
2017-07-23T03:03:13.106Z,99.99
2017-07-23T03:04:14.388Z,99.99
2017-07-23T03:05:15.656Z,99.99
2017-07-23T03:06:16.903Z,99.99
2017-07-23T03:07:18.144Z,99.99
2017-07-23T03:08:19.370Z,99.99
2017-07-23T03:09:20.610Z,99.99
2017-07-23T03:10:21.945Z,99.99
2017-07-23T03:11:23.189Z,99.99
2017-07-23T03:12:24.448Z,99.99
2017-07-23T03:13:25.699Z,99.99
2017-07-23T03:14:26.930Z,99.99
2017-07-23T03:15:28.162Z,99.99
2017-07-23T03:16:29.404Z,99.99
2017-07-23T03:17:30.657Z,99.99
2017-07-23T03:18:31.902Z,99.99
2017-07-23T03:19:33.232Z,99.99
2017-07-23T03:20:34.411Z,99.99
2017-07-23T03:21:35.646Z,99.99
2017-07-23T03:22:36.881Z,99.99
2017-07-23T03:23:38.144Z,99.99
2017-07-23T03:24:39.386Z,99.99
2017-07-23T03:25:40.642Z,99.99
2017-07-23T03:26:41.887Z,99.99
2017-07-23T03:27:43.135Z,99.99
2017-07-23T03:28:44.480Z,99.99
2017-07-23T03:29:45.804Z,99.99
2017-07-23T03:30:47.045Z,99.99
2017-07-23T03:31:48.307Z,99.99
2017-07-23T03:32:49.556Z,99.99
2017-07-23T03:33:50.798Z,99.99
2017-07-23T03:34:52.154Z,99.99
2017-07-23T03:35:53.402Z,99.99
2017-07-23T03:36:54.637Z,99.99
2017-07-23T03:37:55.992Z,99.99
2017-07-23T03:38:57.225Z,99.99
2017-07-23T03:39:58.472Z,99.99
2017-07-23T03:40:59.720Z,99.99
2017-07-23T03:42:01.027Z,99.99
2017-07-23T03:43:02.330Z,99.99
2017-07-23T03:44:03.572Z,99.99
2017-07-23T03:45:04.811Z,99.99
2017-07-23T03:46:06.049Z,99.99
2017-07-23T03:47:07.292Z,99.99
2017-07-23T03:48:08.535Z,99.99
2017-07-23T03:49:09.891Z,99.99
2017-07-23T03:50:11.132Z,99.99
2017-07-23T03:51:12.474Z,99.99
2017-07-23T03:52:13.711Z,99.99
2017-07-23T03:53:14.949Z,99.99
2017-07-23T03:54:16.247Z,99.99
2017-07-23T03:55:17.548Z,99.99
2017-07-23T03:56:18.746Z,99.99
2017-07-23T03:57:19.998Z,99.99
2017-07-23T03:58:21.245Z,99.99
2017-07-23T03:59:22.552Z,99.99
2017-07-23T04:00:23.865Z,99.99
2017-07-23T04:01:25.110Z,99.99
2017-07-23T04:02:26.370Z,99.99
2017-07-23T04:03:27.616Z,99.99
2017-07-23T04:04:28.857Z,99.99
2017-07-23T04:05:30.096Z,99.99
2017-07-23T04:06:31.337Z,99.99
2017-07-23T04:07:32.603Z,99.99
2017-07-23T04:08:33.831Z,99.99
2017-07-23T04:09:35.072Z,99.99
2017-07-23T04:10:36.321Z,99.99
2017-07-23T04:11:37.558Z,99.99
2017-07-23T04:12:38.795Z,99.99
2017-07-23T04:13:40.179Z,99.99
2017-07-23T04:14:41.421Z,99.99
2017-07-23T04:15:42.659Z,99.99
2017-07-23T04:16:43.899Z,99.99
2017-07-23T04:17:45.157Z,99.99
2017-07-23T04:18:46.423Z,99.99
2017-07-23T04:19:47.661Z,99.99
2017-07-23T04:20:48.952Z,99.99
2017-07-23T04:21:50.255Z,99.99
2017-07-23T04:22:51.537Z,99.99
2017-07-23T04:23:52.779Z,99.99
2017-07-23T04:24:54.010Z,99.99
2017-07-23T04:25:55.264Z,99.99
2017-07-23T04:26:56.528Z,99.99
2017-07-23T04:27:57.765Z,99.99
2017-07-23T04:28:59.029Z,99.99
2017-07-23T04:30:00.262Z,99.99
2017-07-23T04:31:01.500Z,99.99
2017-07-23T04:32:02.751Z,99.99
2017-07-23T04:33:04.046Z,99.99
2017-07-23T04:34:05.286Z,99.99
2017-07-23T04:35:06.508Z,99.99
2017-07-23T04:36:07.751Z,99.99
2017-07-23T04:37:08.986Z,99.99
2017-07-23T04:38:10.226Z,99.99
2017-07-23T04:39:11.461Z,99.99
2017-07-23T04:40:12.698Z,99.99
2017-07-23T04:41:14.009Z,99.99
2017-07-23T04:42:15.271Z,99.99
2017-07-23T04:43:16.490Z,99.99
2017-07-23T04:44:17.721Z,99.99
2017-07-23T04:45:18.953Z,99.99
2017-07-23T04:46:20.190Z,99.99
2017-07-23T04:47:21.447Z,99.99
2017-07-23T04:48:22.660Z,99.99
2017-07-23T04:49:23.903Z,99.99
2017-07-23T04:50:25.141Z,99.99
2017-07-23T04:51:26.374Z,99.99
2017-07-23T04:52:27.615Z,99.99
2017-07-23T04:53:28.862Z,99.99
2017-07-23T04:54:30.143Z,99.99
2017-07-23T04:55:31.427Z,99.99
2017-07-23T04:56:32.663Z,99.99
2017-07-23T04:57:33.898Z,99.99
2017-07-23T04:58:35.138Z,99.99
2017-07-23T04:59:36.393Z,99.99
2017-07-23T05:00:37.760Z,99.99
2017-07-23T05:01:38.881Z,99.99
2017-07-23T05:02:40.125Z,99.99
2017-07-23T05:03:41.364Z,99.99
2017-07-23T05:04:42.599Z,99.99
2017-07-23T05:05:43.846Z,99.99
2017-07-23T05:06:45.130Z,99.99
2017-07-23T05:07:46.384Z,99.99
2017-07-23T05:08:47.626Z,99.99
2017-07-23T05:09:48.869Z,99.99
2017-07-23T05:10:50.104Z,99.99
2017-07-23T05:11:51.342Z,99.99
2017-07-23T05:12:52.592Z,99.99
2017-07-23T05:13:53.923Z,99.99
2017-07-23T05:14:55.167Z,99.99
2017-07-23T05:15:56.397Z,99.99
2017-07-23T05:16:57.642Z,99.99
2017-07-23T05:17:58.881Z,99.99
2017-07-23T05:19:00.128Z,99.99
2017-07-23T05:20:01.359Z,99.99
2017-07-23T05:21:02.609Z,99.99
2017-07-23T05:22:03.843Z,99.99
2017-07-23T05:23:05.084Z,99.99
2017-07-23T05:24:06.321Z,99.99
2017-07-23T05:25:07.561Z,99.99
2017-07-23T05:26:08.854Z,99.99
2017-07-23T05:27:10.217Z,99.99
2017-07-23T05:28:11.528Z,99.99
2017-07-23T05:29:12.768Z,99.99
2017-07-23T05:30:14.009Z,99.99
2017-07-23T05:31:15.270Z,99.99
2017-07-23T05:32:16.495Z,99.99
2017-07-23T05:33:17.847Z,99.99
2017-07-23T05:34:19.066Z,99.99
2017-07-23T05:35:20.431Z,99.99
2017-07-23T05:36:21.682Z,99.99
2017-07-23T05:37:22.965Z,99.99
2017-07-23T05:38:24.201Z,99.99
2017-07-23T05:39:25.494Z,99.99
2017-07-23T05:40:26.676Z,99.99
2017-07-23T05:41:27.937Z,99.99
2017-07-23T05:42:29.158Z,99.99
2017-07-23T05:43:30.525Z,99.99
2017-07-23T05:44:31.803Z,99.06
2017-07-23T05:45:33.013Z,97.81
2017-07-23T05:46:34.281Z,97.09
2017-07-23T05:47:35.531Z,95.7
2017-07-23T05:48:36.769Z,92.81
2017-07-23T05:49:38.039Z,91.41
2017-07-23T05:50:39.280Z,89.15
2017-07-23T05:51:40.539Z,86.65
2017-07-23T05:52:41.774Z,85.14
2017-07-23T05:53:43.032Z,81.37
2017-07-23T05:54:44.258Z,78.52
2017-07-23T05:55:45.501Z,75.41
2017-07-23T05:56:46.862Z,73.61
2017-07-23T05:57:48.173Z,70.46
2017-07-23T05:58:49.485Z,70.26
2017-07-23T05:59:50.662Z,68.66
2017-07-23T06:00:51.896Z,67.63
2017-07-23T06:01:53.141Z,66.11
2017-07-23T06:02:54.421Z,64.89
2017-07-23T06:03:55.637Z,63.85
2017-07-23T06:04:56.884Z,61.36
2017-07-23T06:05:58.185Z,60.28
2017-07-23T06:06:59.425Z,56.5
2017-07-23T06:08:00.673Z,55.5
2017-07-23T06:09:01.910Z,55.6
2017-07-23T06:10:03.167Z,55.67
2017-07-23T06:11:04.479Z,55.99
2017-07-23T06:12:05.749Z,53.88
2017-07-23T06:13:06.995Z,53.32
2017-07-23T06:14:08.235Z,52.15
2017-07-23T06:15:09.473Z,51.97
2017-07-23T06:16:10.845Z,51.28
2017-07-23T06:17:12.095Z,51.7
2017-07-23T06:18:13.332Z,51.7
2017-07-23T06:19:14.572Z,49.39
2017-07-23T06:20:15.814Z,49.1
2017-07-23T06:21:17.053Z,49.29
2017-07-23T06:22:18.352Z,48.93
2017-07-23T06:23:19.601Z,47.78
2017-07-23T06:24:20.898Z,46.83
2017-07-23T06:25:22.138Z,45.68
2017-07-23T06:26:23.452Z,44.93
2017-07-23T06:27:24.697Z,44.34
2017-07-23T06:28:25.940Z,44.15
2017-07-23T06:29:27.183Z,43.39
2017-07-23T06:30:28.483Z,42.44
2017-07-23T06:31:29.747Z,41.19
2017-07-23T06:32:30.989Z,40.53
2017-07-23T06:33:32.259Z,38.69
2017-07-23T06:34:33.508Z,38.77
2017-07-23T06:35:34.757Z,38.67
2017-07-23T06:36:36.046Z,39.16
2017-07-23T06:37:37.298Z,38.84
2017-07-23T06:38:38.543Z,39.33
2017-07-23T06:39:39.792Z,39.61
2017-07-23T06:40:41.041Z,39.59
2017-07-23T06:41:42.299Z,40.06
2017-07-23T06:42:43.610Z,41.15
2017-07-23T06:43:44.868Z,39.82
2017-07-23T06:44:46.128Z,38.96
2017-07-23T06:45:47.377Z,37.99
2017-07-23T06:46:48.617Z,38.16
2017-07-23T06:47:49.875Z,38.45
2017-07-23T06:48:51.138Z,38.38
2017-07-23T06:49:52.423Z,38.18
2017-07-23T06:50:53.764Z,37.79
2017-07-23T06:51:55.008Z,37.5
2017-07-23T06:52:56.263Z,38.06
2017-07-23T06:53:57.531Z,38.35
2017-07-23T06:54:58.759Z,38.09
2017-07-23T06:56:00.239Z,37.83
2017-07-23T06:57:01.488Z,36.38
2017-07-23T06:58:02.739Z,35.34
2017-07-23T06:59:04.003Z,34.93
2017-07-23T07:00:05.244Z,35.28
2017-07-23T07:01:06.582Z,36.16
2017-07-23T07:02:07.866Z,36.93
2017-07-23T07:03:09.113Z,36.72
2017-07-23T07:04:10.362Z,36.63
2017-07-23T07:05:11.608Z,36.13
2017-07-23T07:06:12.855Z,36.9
2017-07-23T07:07:14.200Z,38.04
2017-07-23T07:08:15.556Z,37.99
2017-07-23T07:09:16.793Z,37.02
2017-07-23T07:10:18.042Z,35.52
2017-07-23T07:11:19.304Z,34.84
2017-07-23T07:12:20.610Z,33.9
2017-07-23T07:13:21.865Z,32.94
2017-07-23T07:14:23.112Z,32.37
2017-07-23T07:15:24.351Z,31.81
2017-07-23T07:16:25.598Z,30.55
2017-07-23T07:17:26.849Z,30.45
2017-07-23T07:18:28.222Z,29.68
2017-07-23T07:19:29.469Z,29.38
2017-07-23T07:20:30.716Z,29.82
2017-07-23T07:21:31.964Z,31.55
2017-07-23T07:22:33.212Z,32.39
2017-07-23T07:23:34.461Z,33.34
2017-07-23T07:24:35.711Z,33.64
2017-07-23T07:25:36.968Z,33.34
2017-07-23T07:26:38.260Z,33.92
2017-07-23T07:27:39.510Z,33.62
2017-07-23T07:28:40.756Z,33.82
2017-07-23T07:29:42.003Z,33.7
2017-07-23T07:30:43.255Z,34.48
2017-07-23T07:31:44.506Z,34.6
2017-07-23T07:32:45.772Z,34.03
2017-07-23T07:33:47.024Z,33.26
2017-07-23T07:34:48.291Z,33.12
2017-07-23T07:35:49.529Z,33.9
2017-07-23T07:36:50.793Z,34
2017-07-23T07:37:52.073Z,34.18
2017-07-23T07:38:53.299Z,34.84
2017-07-23T07:39:54.554Z,35.61
2017-07-23T07:40:55.824Z,36.25
2017-07-23T07:41:57.053Z,37.08
2017-07-23T07:42:58.351Z,38.79
2017-07-23T07:43:59.598Z,39.18
2017-07-23T07:45:00.933Z,40.06
2017-07-23T07:46:02.184Z,39.98
2017-07-23T07:47:03.428Z,38.79
2017-07-23T07:48:04.673Z,39.49
2017-07-23T07:49:05.912Z,38.64
2017-07-23T07:50:07.161Z,38.62
2017-07-23T07:51:08.481Z,38.81
2017-07-23T07:52:09.734Z,38.31
2017-07-23T07:53:10.983Z,39.36
2017-07-23T07:54:12.254Z,39.55
2017-07-23T07:55:13.481Z,40.6
2017-07-23T07:56:14.752Z,41.06
2017-07-23T07:57:16.000Z,42.19
2017-07-23T07:58:17.263Z,43.52
2017-07-23T07:59:18.522Z,43.79
2017-07-23T08:00:19.766Z,44.06
2017-07-23T08:01:21.016Z,45.98
2017-07-23T08:02:22.396Z,46.46
2017-07-23T08:03:23.803Z,46.56
2017-07-23T08:04:24.936Z,46.56
2017-07-23T08:05:26.186Z,46.53
2017-07-23T08:06:27.436Z,47.5
2017-07-23T08:07:28.677Z,47.79
2017-07-23T08:08:30.029Z,48.11
2017-07-23T08:09:31.265Z,47.72
2017-07-23T08:10:32.588Z,46.84
2017-07-23T08:11:33.897Z,47.43
2017-07-23T08:12:35.147Z,46.94
2017-07-23T08:13:36.498Z,46.48
2017-07-23T08:14:37.735Z,45.9
2017-07-23T08:15:39.002Z,46.22
2017-07-23T08:16:40.283Z,45.65
2017-07-23T08:17:41.524Z,43.93
2017-07-23T08:18:42.770Z,43.4
2017-07-23T08:19:44.020Z,41.18
2017-07-23T08:20:45.257Z,41.1
2017-07-23T08:21:46.528Z,40.23
2017-07-23T08:22:47.781Z,40.33
2017-07-23T08:23:49.024Z,41.18
2017-07-23T08:24:50.286Z,42.25
2017-07-23T08:25:51.527Z,42.33
2017-07-23T08:26:52.799Z,42.99
2017-07-23T08:27:54.172Z,43.57
2017-07-23T08:28:55.402Z,42.52
2017-07-23T08:29:56.679Z,42.36
2017-07-23T08:30:57.929Z,39.49
2017-07-23T08:31:59.168Z,37.68
2017-07-23T08:33:00.417Z,35.98
2017-07-23T08:34:01.666Z,34.83
2017-07-23T08:35:02.917Z,33.58
2017-07-23T08:36:04.237Z,32.13
2017-07-23T08:37:05.484Z,31.57
2017-07-23T08:38:06.740Z,30.32
2017-07-23T08:39:08.004Z,29.94
2017-07-23T08:40:09.239Z,29.94
2017-07-23T08:41:10.488Z,29.87
2017-07-23T08:42:11.736Z,27.25
2017-07-23T08:43:12.982Z,27.45
2017-07-23T08:44:14.221Z,27.07
2017-07-23T08:45:15.474Z,26.29
2017-07-23T08:46:16.725Z,25.62
2017-07-23T08:47:18.134Z,25.03
2017-07-23T08:48:19.403Z,24.85
2017-07-23T08:49:20.646Z,24.76
2017-07-23T08:50:21.893Z,23.39
2017-07-23T08:51:23.130Z,23.58
2017-07-23T08:52:24.456Z,24.75
2017-07-23T08:53:25.920Z,25.15
2017-07-23T08:54:27.094Z,24.85
2017-07-23T08:55:28.346Z,25.98
2017-07-23T08:56:29.595Z,27.12
2017-07-23T08:57:30.874Z,27.2
2017-07-23T08:58:32.119Z,28.28
2017-07-23T08:59:33.360Z,28.74
2017-07-23T09:00:34.618Z,30.15
2017-07-23T09:01:35.881Z,31.3
2017-07-23T09:02:37.140Z,33.04
2017-07-23T09:03:38.393Z,32.32
2017-07-23T09:04:39.628Z,34.05
2017-07-23T09:05:40.888Z,35.76
2017-07-23T09:06:42.160Z,36.89
2017-07-23T09:07:43.523Z,38.99
2017-07-23T09:08:44.746Z,39.95
2017-07-23T09:09:45.993Z,40.34
2017-07-23T09:10:47.233Z,41.2
2017-07-23T09:11:48.482Z,41.3
2017-07-23T09:12:49.812Z,42.17
2017-07-23T09:13:50.990Z,42.36
2017-07-23T09:14:52.238Z,43.41
2017-07-23T09:15:53.477Z,43.5
2017-07-23T09:16:54.740Z,44.54
2017-07-23T09:17:55.973Z,45.98
2017-07-23T09:18:57.262Z,46.56
2017-07-23T09:19:58.553Z,45.98
2017-07-23T09:20:59.832Z,45.22
2017-07-23T09:22:01.070Z,44.57
2017-07-23T09:23:02.319Z,43.91
2017-07-23T09:24:03.561Z,43.52
2017-07-23T09:25:04.860Z,44.2
2017-07-23T09:26:06.099Z,44.13
2017-07-23T09:27:07.464Z,42.61
2017-07-23T09:28:08.615Z,39.67
2017-07-23T09:29:09.846Z,36.88
2017-07-23T09:30:11.106Z,35.18
2017-07-23T09:31:12.362Z,35.12
2017-07-23T09:32:13.615Z,32.92
2017-07-23T09:33:14.872Z,30.82
2017-07-23T09:34:16.103Z,29.1
2017-07-23T09:35:17.362Z,27.83
2017-07-23T09:36:18.615Z,28.09
2017-07-23T09:37:19.870Z,29.34
2017-07-23T09:38:21.157Z,30.27
2017-07-23T09:39:22.417Z,32.47
2017-07-23T09:40:23.684Z,33.88
2017-07-23T09:41:24.947Z,36.18
2017-07-23T09:42:26.197Z,37.78
2017-07-23T09:43:27.434Z,39.88
2017-07-23T09:44:28.697Z,41.88
2017-07-23T09:45:29.952Z,42.92
2017-07-23T09:46:31.180Z,43.77
2017-07-23T09:47:32.425Z,45.03
2017-07-23T09:48:33.686Z,44.96
2017-07-23T09:49:34.927Z,43.99
2017-07-23T09:50:36.176Z,43.99
2017-07-23T09:51:37.419Z,44.09
2017-07-23T09:52:38.786Z,45.9
2017-07-23T09:53:40.030Z,45.78
2017-07-23T09:54:41.280Z,47.41
2017-07-23T09:55:42.529Z,47.6
2017-07-23T09:56:43.784Z,47.69
2017-07-23T09:57:45.035Z,48.18
2017-07-23T09:58:46.401Z,48.16
2017-07-23T09:59:47.647Z,47.86
2017-07-23T10:00:48.897Z,48.35
2017-07-23T10:01:50.135Z,49.29
2017-07-23T10:02:51.394Z,50.45
2017-07-23T10:03:52.723Z,50.93
2017-07-23T10:04:53.996Z,50.81
2017-07-23T10:05:55.259Z,51.13
2017-07-23T10:06:56.478Z,50.7
2017-07-23T10:07:57.728Z,48.27
2017-07-23T10:08:59.040Z,45.17
2017-07-23T10:10:00.329Z,39.51
2017-07-23T10:11:01.566Z,38.01
2017-07-23T10:12:02.827Z,35.51
2017-07-23T10:13:04.099Z,33.85
2017-07-23T10:14:05.353Z,34.24
2017-07-23T10:15:06.626Z,34.59
2017-07-23T10:16:07.896Z,34.95
2017-07-23T10:17:09.150Z,36.49
2017-07-23T10:18:10.402Z,37.08
2017-07-23T10:19:11.759Z,37.74
2017-07-23T10:20:13.000Z,38.09
2017-07-23T10:21:14.251Z,39.32
2017-07-23T10:22:15.507Z,41.22
2017-07-23T10:23:16.760Z,43.6
2017-07-23T10:24:18.106Z,44.26
2017-07-23T10:25:19.347Z,45.2
2017-07-23T10:26:20.592Z,45.76
2017-07-23T10:27:21.831Z,47.48
2017-07-23T10:28:23.072Z,47.16
2017-07-23T10:29:24.368Z,47.43
2017-07-23T10:30:25.698Z,48.97
2017-07-23T10:31:26.925Z,49.63
2017-07-23T10:32:28.178Z,50.5
2017-07-23T10:33:29.425Z,50.59
2017-07-23T10:34:30.682Z,51.17
2017-07-23T10:35:31.938Z,51.73
2017-07-23T10:36:33.181Z,51.63
2017-07-23T10:37:34.481Z,52.4
2017-07-23T10:38:35.745Z,53.25
2017-07-23T10:39:36.966Z,53.47
2017-07-23T10:40:38.389Z,54.24
2017-07-23T10:41:39.633Z,54.31
2017-07-23T10:42:40.898Z,55.76
2017-07-23T10:43:42.135Z,56.72
2017-07-23T10:44:43.399Z,56.72
2017-07-23T10:45:44.694Z,57.75
2017-07-23T10:46:45.934Z,59.39
2017-07-23T10:47:47.183Z,60.16
2017-07-23T10:48:48.474Z,60.45
2017-07-23T10:49:49.742Z,60.68
2017-07-23T10:50:50.997Z,59.45
2017-07-23T10:51:52.251Z,58.87
2017-07-23T10:52:53.511Z,57.9
2017-07-23T10:53:54.826Z,56.26
2017-07-23T10:54:56.128Z,56.56
2017-07-23T10:55:57.416Z,56.56
2017-07-23T10:56:58.652Z,56.56
2017-07-23T10:57:59.890Z,57.23
2017-07-23T10:59:01.195Z,58
2017-07-23T11:00:02.523Z,59.03
2017-07-23T11:01:03.825Z,58.75
2017-07-23T11:02:05.040Z,59.52
2017-07-23T11:03:06.277Z,60.19
2017-07-23T11:04:07.532Z,60.35
2017-07-23T11:05:08.793Z,59.8
2017-07-23T11:06:10.152Z,60.58
2017-07-23T11:07:11.372Z,59.8
2017-07-23T11:08:12.622Z,57.81
2017-07-23T11:09:13.871Z,57.42
2017-07-23T11:10:15.120Z,57.52
2017-07-23T11:11:16.406Z,56.58
2017-07-23T11:12:17.640Z,56.77
2017-07-23T11:13:18.960Z,56.29
2017-07-23T11:14:20.200Z,55.62
2017-07-23T11:15:21.445Z,55.62
2017-07-23T11:16:22.728Z,56
2017-07-23T11:17:23.977Z,56.65
2017-07-23T11:18:25.273Z,59.83
2017-07-23T11:19:26.585Z,60.99
2017-07-23T11:20:27.934Z,60.51
2017-07-23T11:21:29.173Z,59.23
2017-07-23T11:22:30.421Z,58.65
2017-07-23T11:23:31.666Z,58.17
2017-07-23T11:24:32.958Z,58.04
2017-07-23T11:25:34.239Z,58.04
2017-07-23T11:26:35.478Z,57.85
2017-07-23T11:27:36.716Z,58.17
2017-07-23T11:28:37.962Z,57.97
2017-07-23T11:29:39.191Z,57.52
2017-07-23T11:30:40.456Z,56.26
2017-07-23T11:31:41.697Z,55.9
2017-07-23T11:32:42.960Z,55.81
2017-07-23T11:33:44.218Z,54.27
2017-07-23T11:34:45.460Z,52.94
2017-07-23T11:35:46.716Z,53.33
2017-07-23T11:36:47.957Z,52.36
2017-07-23T11:37:49.266Z,53.01
2017-07-23T11:38:50.523Z,54.17
2017-07-23T11:39:51.984Z,53.03
2017-07-23T11:40:53.233Z,52.87
2017-07-23T11:41:54.610Z,53.25
2017-07-23T11:42:56.051Z,52.58
2017-07-23T11:43:57.300Z,51.51
2017-07-23T11:44:58.563Z,51.9
2017-07-23T11:45:59.788Z,51.83
2017-07-23T11:47:01.048Z,51.35
2017-07-23T11:48:02.447Z,50.76
2017-07-23T11:49:03.799Z,49.12
2017-07-23T11:50:05.048Z,49.12
2017-07-23T11:51:06.265Z,47.86
2017-07-23T11:52:07.522Z,46.9
2017-07-23T11:53:08.762Z,47.86
2017-07-23T11:54:10.140Z,48.61
2017-07-23T11:55:11.385Z,47.94
2017-07-23T11:56:12.630Z,48.03
2017-07-23T11:57:13.900Z,48.79
2017-07-23T11:58:15.146Z,49.07
2017-07-23T11:59:16.477Z,48.97
2017-07-23T12:00:17.728Z,50.59
2017-07-23T12:01:18.991Z,49.27
2017-07-23T12:02:20.283Z,49.82
2017-07-23T12:03:21.541Z,49.85
2017-07-23T12:04:22.849Z,49.44
2017-07-23T12:05:24.094Z,50.79
2017-07-23T12:06:25.405Z,50.89
2017-07-23T12:07:26.699Z,51.59
2017-07-23T12:08:27.926Z,50.43
2017-07-23T12:09:29.169Z,50.33
2017-07-23T12:10:30.420Z,49.65
2017-07-23T12:11:31.663Z,50.07
2017-07-23T12:12:33.002Z,49.49
2017-07-23T12:13:34.272Z,49.99
2017-07-23T12:14:35.551Z,49.99
2017-07-23T12:15:36.789Z,48.95
2017-07-23T12:16:38.037Z,49.46
2017-07-23T12:17:39.280Z,47.81
2017-07-23T12:18:40.517Z,47.52
2017-07-23T12:19:41.844Z,46.56
2017-07-23T12:20:43.085Z,46.75
2017-07-23T12:21:44.344Z,46.56
2017-07-23T12:22:45.594Z,47.74
2017-07-23T12:23:46.920Z,46.58
2017-07-23T12:24:48.243Z,47.64
2017-07-23T12:25:49.480Z,47.74
2017-07-23T12:26:50.739Z,46.66
2017-07-23T12:27:51.987Z,47.31
2017-07-23T12:28:53.229Z,47.41
2017-07-23T12:29:54.478Z,46.61
2017-07-23T12:30:55.737Z,47.48
2017-07-23T12:31:57.002Z,47.67
2017-07-23T12:32:58.273Z,49.32
2017-07-23T12:33:59.644Z,49.49
2017-07-23T12:35:00.887Z,48.13
2017-07-23T12:36:02.131Z,47.55
2017-07-23T12:37:03.380Z,48.71
2017-07-23T12:38:04.661Z,47.36
2017-07-23T12:39:06.001Z,48.13
2017-07-23T12:40:07.236Z,47.36
2017-07-23T12:41:08.485Z,46.49
2017-07-23T12:42:09.745Z,46.58
2017-07-23T12:43:10.976Z,47.26
2017-07-23T12:44:12.334Z,47.16
2017-07-23T12:45:13.675Z,46.75
2017-07-23T12:46:14.910Z,46.85
2017-07-23T12:47:16.164Z,47.33
2017-07-23T12:48:17.389Z,48.88
2017-07-23T12:49:18.658Z,48.79
2017-07-23T12:50:19.898Z,47.74
2017-07-23T12:51:21.156Z,47.36
2017-07-23T12:52:22.501Z,46.68
2017-07-23T12:53:23.735Z,47.74
2017-07-23T12:54:24.984Z,47.26
2017-07-23T12:55:26.233Z,47.55
2017-07-23T12:56:27.470Z,47.45
2017-07-23T12:57:28.833Z,46.75
2017-07-23T12:58:30.089Z,46.75
2017-07-23T12:59:31.329Z,47.72
2017-07-23T13:00:32.605Z,47.63
2017-07-23T13:01:33.849Z,47.43
2017-07-23T13:02:35.169Z,47.26
2017-07-23T13:03:36.472Z,47.36
2017-07-23T13:04:37.746Z,46.68
2017-07-23T13:05:38.987Z,46.68
2017-07-23T13:06:40.225Z,46.3
2017-07-23T13:07:41.472Z,46.39
2017-07-23T13:08:42.811Z,46.49
2017-07-23T13:09:44.077Z,46.49
2017-07-23T13:10:45.319Z,46.88